Terminal Aerodrome Forecast
Issued by NWS

Home | Current Version | Previous Version | Text Only | Print | Product List | Glossary On
Versions: 1 2 3 4 5 6 7 8 9 10 11 12 13 14 15 16 17 18 19 20 21 22 23 24 25 26 27 28 29 30 31 32
000
FTUS43 KFGF 231120
TAFTVF
TAF
KTVF 231120Z 2312/2412 31015G19KT P6SM OVC015
     FM231600 30016G24KT P6SM OVC020
     FM231900 30017G24KT P6SM BKN035
     FM240300 31010KT P6SM SCT070
     FM240900 31009KT P6SM BKN045
     FM241100 31008KT P6SM BKN030=

USA.gov is the U.S. government's official web portal to all federal, state and local government web resources and services.